NCAR-RAP Real-Time Weather Data

Output produced by METARs form (08 May 2021  01:25 UTC)
found at http://weather.rap.ucar.edu/surface/
 
KDRT 080053Z AUTO 12011G18KT 10SM CLR 32/08 A2989 RMK AO2 PK WND 14028/0020 SLP107 T03220083
KDRT 072353Z AUTO 13011G23KT 10SM CLR 33/08 A2990 RMK AO2 PK WND 15027/2314 SLP108 T03330078 10339 20300 58030
KDRT 072253Z AUTO 13013G24KT 10SM CLR 33/08 A2993 RMK AO2 SLP118 T03330078
KDRT 072153Z AUTO 14015G23KT 10SM CLR 34/09 A2996 RMK AO2 SLP129 T03390089
KDRT 072053Z AUTO 14017G26KT 10SM CLR 32/09 A2999 RMK AO2 PK WND 15027/2032 SLP139 T03220094 58041
KDRT 071953Z AUTO 15016G24KT 10SM CLR 33/11 A3004 RMK AO2 PK WND 14029/1938 SLP155 T03280111
KDRT 071853Z AUTO 16010G19KT 10SM CLR 32/12 A3008 RMK AO2 SLP168 T03170117
KDRT 071753Z AUTO 13010G21KT 10SM CLR 30/11 A3011 RMK AO2 SLP180 T03000106 10306 20194 58020
KDRT 071653Z AUTO 13013G21KT 10SM CLR 29/11 A3015 RMK AO2 SLP192 T02890111
KDRT 071553Z AUTO 13013G20KT 10SM CLR 27/12 A3017 RMK AO2 SLP199 T02670117
KDRT 071453Z AUTO 14009KT 10SM CLR 24/11 A3017 RMK AO2 SLP202 T02440111 51015
KDRT 071353Z AUTO 12008KT 10SM CLR 23/13 A3017 RMK AO2 SLP200 T02280128
KDRT 071253Z AUTO 12006KT 10SM CLR 21/14 A3015 RMK AO2 SLP195 T02060139
KDRT 071153Z AUTO 09006KT 10SM CLR 19/14 A3013 RMK AO2 SLP187 T01940139 10244 20194 53009
KDRT 071053Z AUTO 09003KT 10SM CLR 20/13 A3012 RMK AO2 SLP182 T02000128